Etusivu
METAR-TAF:

METAR-TAF

Lentoasemat :

Mekoryuk, Alaska, Yhdysvallat

Leveyspiiri: 60-22N, Pituuspiiri: 166-16W, korkeus merenpinnasta: 15 m

Tämänhetkinen sää

Tämä raportti tehtiin 6 minuuttia sitten, kello 14.04 UTC
Tuuli 7 kn lännestä
Lämpötila 1°C
Kosteus 100%
Ilmanpaine 1025 hPa
Näkyvyys: 0.8 km
Pilvistä 200 ft:n korkeudessa
heikkoa sadetta, sumua

METAR: PAMY 151404Z AUTO 26007KT 1/2SM -RA FG OVC002 01/01 A3026 RMK AO2 RAB01 P0000 FZRANO $

Aika: 06:10 (14:10 UTC)


TAF: puuttuu

Säähavainnot ja -ennusteet yli 4000 lentoasemalta (METAR- ja TAF-raportit).

Käytössä olevat sääasemat on merkitty karttaan keltaisilla ja punaisilla pisteillä.

Aseta hiiri pisteen päälle nähdäksesi sääaseman nimen.

Klikkaa sitten nähdäksesi säähavainnot ja -ennusteet.

Kartan vaihtaminen: klikkaa mustalla rastilla varustettuja vihreitä pisteitä, niin voit zoomata sisään; viivalla varustettua vihreää pistettä, niin voit zoomata ulos tai vihreitä nuolia, niin pääset viereisille kartoille.


METAR-TAF: